Time;durP1;ratioP1;P1;durP2;ratioP2;P2;SDS_P1;SDS_P2;PMS_P1;PMS_P2;Temp;Humidity;BMP_temperature;BMP_pressure;BME280_temperature;BME280_humidity;BME280_pressure;Samples;Min_cycle;Max_cycle;Signal;HPM_P1;HPM_P2
2022/08/16 00:00:20;;;;;;;;;;;;;;;;;;5044376;28;20041;-81
2022/08/16 00:02:46;;;;;;;;;;;;;;;;;;5039069;28;19956;-81
2022/08/16 00:05:12;;;;;;;;;;;;;;;;;;5026472;28;20063;-82
2022/08/16 00:07:38;;;;;;;;;;;;;;;;;;5048868;28;19963;-80
2022/08/16 00:10:04;;;;;;;;;;;;;;;;;;5028533;28;19987;-83
2022/08/16 00:12:31;;;;;;;;;;;;;;;;;;5042077;28;19963;-84
2022/08/16 00:14:57;;;;;;;;;;;;;;;;;;5038845;28;19963;-84
2022/08/16 00:17:23;;;;;;;;;;;;;;;;;;5047013;28;20381;-84
2022/08/16 00:19:49;;;;;;;;;;;;;;;;;;5047894;28;19944;-85
2022/08/16 00:22:16;;;;;;;;;;;;;;;;;;5041341;28;19960;-84
2022/08/16 00:24:42;;;;;;;;;;;;;;;;;;5029595;28;20382;-84
2022/08/16 00:27:08;;;;;;;;;;;;;;;;;;5012980;28;19974;-84
2022/08/16 00:29:34;;;;;;;;;;;;;;;;;;5048383;28;19959;-85
2022/08/16 00:32:00;;;;;;;;;;;;;;;;;;5018509;28;20340;-85
2022/08/16 00:34:27;;;;;;;;;;;;;;;;;;5047764;28;19956;-85
2022/08/16 00:36:53;;;;;;;;;;;;;;;;;;5047612;28;19952;-85
2022/08/16 00:39:19;;;;;;;;;;;;;;;;;;5026752;28;19956;-86
2022/08/16 00:41:45;;;;;;;;;;;;;;;;;;5045754;28;19964;-86
2022/08/16 00:44:11;;;;;;;;;;;;;;;;;;5046477;28;19948;-84
2022/08/16 00:46:38;;;;;;;;;;;;;;;;;;5028300;28;19995;-83
2022/08/16 00:49:04;;;;;;;;;;;;;;;;;;5027433;28;19960;-86
2022/08/16 00:51:30;;;;;;;;;;;;;;;;;;5021873;28;20002;-82
2022/08/16 00:53:56;;;;;;;;;;;;;;;;;;5032507;28;20345;-81
2022/08/16 00:56:22;;;;;;;;;;;;;;;;;;5046886;28;19948;-79
2022/08/16 00:58:49;;;;;;;;;;;;;;;;;;5043994;28;19951;-80
2022/08/16 01:01:15;;;;;;;;;;;;;;;;;;5045112;28;19956;-81
2022/08/16 01:03:41;;;;;;;;;;;;;;;;;;5046228;28;19968;-81
2022/08/16 01:06:08;;;;;;;;;;;;;;;;;;5045293;28;20402;-80
2022/08/16 01:08:34;;;;;;;;;;;;;;;;;;5046933;28;19964;-80
2022/08/16 01:11:00;;;;;;;;;;;;;;;;;;5045857;28;19972;-80
2022/08/16 01:13:26;;;;;;;;;;;;;;;;;;5026437;28;19955;-81
2022/08/16 01:15:52;;;;;;;;;;;;;;;;;;5044696;28;19948;-81
2022/08/16 01:18:19;;;;;;;;;;;;;;;;;;5012160;28;19952;-79
2022/08/16 01:20:45;;;;;;;;;;;;;;;;;;5042692;28;19959;-81
2022/08/16 01:23:11;;;;;;;;;;;;;;;;;;5018487;28;20396;-81
2022/08/16 01:25:37;;;;;;;;;;;;;;;;;;5045719;28;19956;-81
2022/08/16 01:28:03;;;;;;;;;;;;;;;;;;5045495;28;20266;-82
2022/08/16 01:30:30;;;;;;;;;;;;;;;;;;5046810;28;19945;-81
2022/08/16 01:32:56;;;;;;;;;;;;;;;;;;5038510;28;19940;-80
2022/08/16 01:35:22;;;;;;;;;;;;;;;;;;5042975;28;20021;-81
2022/08/16 01:37:48;;;;;;;;;;;;;;;;;;5021778;28;19952;-82
2022/08/16 01:40:15;;;;;;;;;;;;;;;;;;5022905;28;20055;-80
2022/08/16 01:42:41;;;;;;;;;;;;;;;;;;5043879;28;19929;-79
2022/08/16 01:45:07;;;;;;;;;;;;;;;;;;5037565;28;20379;-80
2022/08/16 01:47:33;;;;;;;;;;;;;;;;;;5046239;28;19952;-81
2022/08/16 01:49:59;;;;;;;;;;;;;;;;;;5045010;28;20329;-81
2022/08/16 01:52:25;;;;;;;;;;;;;;;;;;5044109;28;19948;-81
2022/08/16 01:54:52;;;;;;;;;;;;;;;;;;5041511;28;19917;-83
2022/08/16 01:57:20;;;;;;;;;;;;;;;;;;5040945;28;19974;-82
2022/08/16 01:59:46;;;;;;;;;;;;;;;;;;5028980;28;19913;-81
2022/08/16 02:02:12;;;;;;;;;;;;;;;;;;5035533;28;19953;-84
2022/08/16 02:04:38;;;;;;;;;;;;;;;;;;5026307;28;20301;-85
2022/08/16 02:07:07;;;;;;;;;;;;;;;;;;5046059;28;20553;-85
2022/08/16 02:09:36;;;;;;;;;;;;;;;;;;5044510;28;19952;-82
2022/08/16 02:12:02;;;;;;;;;;;;;;;;;;5037721;28;19945;-81
2022/08/16 02:14:28;;;;;;;;;;;;;;;;;;5042930;28;19920;-82
2022/08/16 02:16:54;;;;;;;;;;;;;;;;;;5045446;28;20433;-83
2022/08/16 02:19:20;;;;;;;;;;;;;;;;;;5044226;28;20555;-83
2022/08/16 02:21:47;;;;;;;;;;;;;;;;;;5046859;28;19952;-81
2022/08/16 02:24:13;;;;;;;;;;;;;;;;;;5046756;28;20000;-82
2022/08/16 02:26:39;;;;;;;;;;;;;;;;;;5049741;28;19948;-85
2022/08/16 02:29:05;;;;;;;;;;;;;;;;;;5049675;28;19960;-81
2022/08/16 02:31:31;;;;;;;;;;;;;;;;;;5046619;28;19988;-85
2022/08/16 02:33:58;;;;;;;;;;;;;;;;;;5031620;28;19959;-85
2022/08/16 02:36:24;;;;;;;;;;;;;;;;;;5030974;28;20407;-84
2022/08/16 02:38:50;;;;;;;;;;;;;;;;;;5048820;28;19960;-83
2022/08/16 02:41:16;;;;;;;;;;;;;;;;;;5049529;28;19971;-83
2022/08/16 02:43:42;;;;;;;;;;;;;;;;;;5042797;28;20429;-85
2022/08/16 02:46:09;;;;;;;;;;;;;;;;;;5050006;28;19960;-84
2022/08/16 02:48:37;;;;;;;;;;;;;;;;;;5048242;28;20045;-85
2022/08/16 02:51:03;;;;;;;;;;;;;;;;;;5049555;28;20425;-83
2022/08/16 02:53:29;;;;;;;;;;;;;;;;;;5049420;28;19964;-85
2022/08/16 02:55:55;;;;;;;;;;;;;;;;;;5049520;28;20050;-81
2022/08/16 02:58:22;;;;;;;;;;;;;;;;;;5048814;28;20009;-84
2022/08/16 03:00:48;;;;;;;;;;;;;;;;;;5035152;28;19979;-83
2022/08/16 03:03:14;;;;;;;;;;;;;;;;;;5029545;28;20312;-84
2022/08/16 03:05:41;;;;;;;;;;;;;;;;;;5013721;28;19948;-84
2022/08/16 03:08:08;;;;;;;;;;;;;;;;;;5049055;28;19936;-84
2022/08/16 03:10:34;;;;;;;;;;;;;;;;;;5027373;28;19956;-84
2022/08/16 03:13:00;;;;;;;;;;;;;;;;;;5043135;28;19995;-83
2022/08/16 03:15:26;;;;;;;;;;;;;;;;;;5042710;28;19960;-84
2022/08/16 03:17:53;;;;;;;;;;;;;;;;;;5032309;28;19956;-83
2022/08/16 03:20:19;;;;;;;;;;;;;;;;;;5046969;28;20322;-83
2022/08/16 03:22:45;;;;;;;;;;;;;;;;;;5043430;28;19953;-84
2022/08/16 03:25:11;;;;;;;;;;;;;;;;;;5048556;28;20384;-84
2022/08/16 03:27:41;;;;;;;;;;;;;;;;;;5047278;28;19961;-82
2022/08/16 03:30:07;;;;;;;;;;;;;;;;;;5049505;28;20614;-88
2022/08/16 03:32:33;;;;;;;;;;;;;;;;;;5048896;28;19921;-85
2022/08/16 03:35:00;;;;;;;;;;;;;;;;;;5045930;28;19952;-84
2022/08/16 03:37:26;;;;;;;;;;;;;;;;;;5042196;28;19940;-84
2022/08/16 03:39:52;;;;;;;;;;;;;;;;;;5047124;28;19964;-85
2022/08/16 03:42:19;;;;;;;;;;;;;;;;;;5029406;28;19956;-85
2022/08/16 03:44:45;;;;;;;;;;;;;;;;;;5046564;28;19982;-85
2022/08/16 03:47:14;;;;;;;;;;;;;;;;;;5030383;28;19921;-85
2022/08/16 03:49:40;;;;;;;;;;;;;;;;;;5046307;28;20013;-84
2022/08/16 03:52:06;;;;;;;;;;;;;;;;;;5029655;28;19964;-85
2022/08/16 03:54:32;;;;;;;;;;;;;;;;;;5048331;28;19948;-84
2022/08/16 03:56:58;;;;;;;;;;;;;;;;;;5047692;28;20369;-84
2022/08/16 03:59:25;;;;;;;;;;;;;;;;;;5042732;28;20000;-83
2022/08/16 04:01:51;;;;;;;;;;;;;;;;;;5048366;28;19960;-84
2022/08/16 04:04:17;;;;;;;;;;;;;;;;;;5043878;28;19971;-83
2022/08/16 04:06:43;;;;;;;;;;;;;;;;;;5031403;28;19998;-87
2022/08/16 04:09:12;;;;;;;;;;;;;;;;;;5047723;28;19925;-83
2022/08/16 04:11:38;;;;;;;;;;;;;;;;;;5047858;28;20384;-83
2022/08/16 04:14:05;;;;;;;;;;;;;;;;;;5046003;28;20369;-82
2022/08/16 04:16:31;;;;;;;;;;;;;;;;;;5043834;28;20367;-83
2022/08/16 04:19:19;;;;;;;;;;;;;;;;;;;;;
2022/08/16 04:21:46;;;;;;;;;;;;;;;;;;5043310;28;19956;-81
2022/08/16 04:24:12;;;;;;;;;;;;;;;;;;5042232;28;19972;-81
2022/08/16 04:26:38;;;;;;;;;;;;;;;;;;5047126;28;19952;-85
2022/08/16 04:29:04;;;;;;;;;;;;;;;;;;5044996;28;19964;-82
2022/08/16 04:31:30;;;;;;;;;;;;;;;;;;5045925;28;19956;-83
2022/08/16 04:33:58;;;;;;;;;;;;;;;;;;5027911;28;19956;-83
2022/08/16 04:36:24;;;;;;;;;;;;;;;;;;5028870;28;20511;-83
2022/08/16 04:38:50;;;;;;;;;;;;;;;;;;5045411;28;19967;-80
2022/08/16 04:41:16;;;;;;;;;;;;;;;;;;5042319;28;19948;-80
2022/08/16 04:43:42;;;;;;;;;;;;;;;;;;5043582;28;19956;-83
2022/08/16 04:46:09;;;;;;;;;;;;;;;;;;5044214;28;20400;-83
2022/08/16 04:48:35;;;;;;;;;;;;;;;;;;5028220;28;19955;-79
2022/08/16 04:51:01;;;;;;;;;;;;;;;;;;5044294;28;19956;-80
2022/08/16 04:53:27;;;;;;;;;;;;;;;;;;5037660;28;19941;-81
2022/08/16 04:55:53;;;;;;;;;;;;;;;;;;5041885;28;20000;-81
2022/08/16 04:58:19;;;;;;;;;;;;;;;;;;5027000;28;19955;-81
2022/08/16 05:00:46;;;;;;;;;;;;;;;;;;5027643;28;20395;-81
2022/08/16 05:03:12;;;;;;;;;;;;;;;;;;5023337;28;19959;-81
2022/08/16 05:05:38;;;;;;;;;;;;;;;;;;5028447;28;19960;-81
2022/08/16 05:08:04;;;;;;;;;;;;;;;;;;5027449;28;19983;-80
2022/08/16 05:10:30;;;;;;;;;;;;;;;;;;5047291;28;19964;-80
2022/08/16 05:12:57;;;;;;;;;;;;;;;;;;5041297;28;19971;-81
2022/08/16 05:15:23;;;;;;;;;;;;;;;;;;5044689;28;20012;-83
2022/08/16 05:17:49;;;;;;;;;;;;;;;;;;5039275;28;19952;-82
2022/08/16 05:20:15;;;;;;;;;;;;;;;;;;5028511;28;21416;-82
2022/08/16 05:22:41;;;;;;;;;;;;;;;;;;5024107;28;19990;-83
2022/08/16 05:25:08;;;;;;;;;;;;;;;;;;5046011;28;20019;-82
2022/08/16 05:27:34;;;;;;;;;;;;;;;;;;5046140;28;19945;-81
2022/08/16 05:30:00;;;;;;;;;;;;;;;;;;5042252;28;19948;-82
2022/08/16 05:32:26;;;;;;;;;;;;;;;;;;5044962;28;20546;-82
2022/08/16 05:34:52;;;;;;;;;;;;;;;;;;5045247;28;19963;-83
2022/08/16 05:37:22;;;;;;;;;;;;;;;;;;5045064;28;19952;-81
2022/08/16 05:39:50;;;;;;;;;;;;;;;;;;5027082;28;19970;-81
2022/08/16 05:42:17;;;;;;;;;;;;;;;;;;5046210;28;19963;-81
2022/08/16 05:44:43;;;;;;;;;;;;;;;;;;5017170;28;21316;-82
2022/08/16 05:47:09;;;;;;;;;;;;;;;;;;5046842;28;19952;-82
2022/08/16 05:49:35;;;;;;;;;;;;;;;;;;5046126;28;19963;-82
2022/08/16 05:52:01;;;;;;;;;;;;;;;;;;5043213;28;20355;-82
2022/08/16 05:54:28;;;;;;;;;;;;;;;;;;5038192;28;19963;-82
2022/08/16 05:56:54;;;;;;;;;;;;;;;;;;5050523;28;19960;-83
2022/08/16 05:59:20;;;;;;;;;;;;;;;;;;5046892;28;19967;-81
2022/08/16 06:01:49;;;;;;;;;;;;;;;;;;5050738;28;19954;-81
2022/08/16 06:04:15;;;;;;;;;;;;;;;;;;5012543;28;19964;-80
2022/08/16 06:06:41;;;;;;;;;;;;;;;;;;5038749;28;19955;-80
2022/08/16 06:09:07;;;;;;;;;;;;;;;;;;5048474;28;19941;-81
2022/08/16 06:11:34;;;;;;;;;;;;;;;;;;5044644;28;19975;-81
2022/08/16 06:14:00;;;;;;;;;;;;;;;;;;5045043;28;20603;-83
2022/08/16 06:16:26;;;;;;;;;;;;;;;;;;5038432;28;19976;-82
2022/08/16 06:18:52;;;;;;;;;;;;;;;;;;5041270;28;19957;-82
2022/08/16 06:21:18;;;;;;;;;;;;;;;;;;5043031;28;20060;-82
2022/08/16 06:23:44;;;;;;;;;;;;;;;;;;5051858;28;20407;-82
2022/08/16 06:26:11;;;;;;;;;;;;;;;;;;5043687;28;19940;-83
2022/08/16 06:28:37;;;;;;;;;;;;;;;;;;5048800;28;19948;-81
2022/08/16 06:31:03;;;;;;;;;;;;;;;;;;5050901;28;19956;-83
2022/08/16 06:33:29;;;;;;;;;;;;;;;;;;5050075;28;19956;-82
2022/08/16 06:35:56;;;;;;;;;;;;;;;;;;5049755;28;19917;-81
2022/08/16 06:38:22;;;;;;;;;;;;;;;;;;5048582;28;21333;-80
2022/08/16 06:40:49;;;;;;;;;;;;;;;;;;5030721;28;20073;-80
2022/08/16 06:43:16;;;;;;;;;;;;;;;;;;5046545;28;20027;-83
2022/08/16 06:45:42;;;;;;;;;;;;;;;;;;5048411;28;19952;-82
2022/08/16 06:48:09;;;;;;;;;;;;;;;;;;5053815;28;19917;-87
2022/08/16 06:50:35;;;;;;;;;;;;;;;;;;5056283;28;20400;-87
2022/08/16 06:53:01;;;;;;;;;;;;;;;;;;5045678;28;19924;-85
2022/08/16 06:55:27;;;;;;;;;;;;;;;;;;5047836;28;19953;-83
2022/08/16 06:57:53;;;;;;;;;;;;;;;;;;5029784;28;19963;-82
2022/08/16 07:00:19;;;;;;;;;;;;;;;;;;5045871;28;19956;-81
2022/08/16 07:02:46;;;;;;;;;;;;;;;;;;5028974;28;19964;-82
2022/08/16 07:05:12;;;;;;;;;;;;;;;;;;5029267;28;20373;-82
2022/08/16 07:07:38;;;;;;;;;;;;;;;;;;5030581;28;19949;-81
2022/08/16 07:10:04;;;;;;;;;;;;;;;;;;5025137;28;19971;-81
2022/08/16 07:12:31;;;;;;;;;;;;;;;;;;5049357;28;20051;-81
2022/08/16 07:14:57;;;;;;;;;;;;;;;;;;5046325;28;19948;-81
2022/08/16 07:17:23;;;;;;;;;;;;;;;;;;5008106;28;20381;-81
2022/08/16 07:19:49;;;;;;;;;;;;;;;;;;5043690;28;19960;-81
2022/08/16 07:22:15;;;;;;;;;;;;;;;;;;5046057;28;21529;-82
2022/08/16 07:24:43;;;;;;;;;;;;;;;;;;5048082;28;19960;-82
2022/08/16 07:27:09;;;;;;;;;;;;;;;;;;5042542;28;19953;-82
2022/08/16 07:29:35;;;;;;;;;;;;;;;;;;5044862;28;19998;-82
2022/08/16 07:32:01;;;;;;;;;;;;;;;;;;5038855;28;19971;-83
2022/08/16 07:34:28;;;;;;;;;;;;;;;;;;5046928;28;19965;-80
2022/08/16 07:36:54;;;;;;;;;;;;;;;;;;5047847;28;19951;-81
2022/08/16 07:39:20;;;;;;;;;;;;;;;;;;5043785;28;20401;-82
2022/08/16 07:41:46;;;;;;;;;;;;;;;;;;5046073;28;19952;-79
2022/08/16 07:44:12;;;;;;;;;;;;;;;;;;5047742;28;19971;-81
2022/08/16 07:46:38;;;;;;;;;;;;;;;;;;5048389;28;19959;-81
2022/08/16 07:49:05;;;;;;;;;;;;;;;;;;5045383;28;19996;-81
2022/08/16 07:51:33;;;;;;;;;;;;;;;;;;5042072;28;19979;-81
2022/08/16 07:54:01;;;;;;;;;;;;;;;;;;5043968;28;20374;-82
2022/08/16 07:56:27;;;;;;;;;;;;;;;;;;5039810;28;19968;-83
2022/08/16 07:58:54;;;;;;;;;;;;;;;;;;5046611;28;19948;-82
2022/08/16 08:01:23;;;;;;;;;;;;;;;;;;5044591;28;19920;-82
2022/08/16 08:03:51;;;;;;;;;;;;;;;;;;5040787;28;19956;-81
2022/08/16 08:06:17;;;;;;;;;;;;;;;;;;5040676;28;19956;-80
2022/08/16 08:08:43;;;;;;;;;;;;;;;;;;5046528;28;20372;-82
2022/08/16 08:11:09;;;;;;;;;;;;;;;;;;5041038;28;19975;-81
2022/08/16 08:13:35;;;;;;;;;;;;;;;;;;5047358;28;19955;-81
2022/08/16 08:16:02;;;;;;;;;;;;;;;;;;5043833;28;19956;-80
2022/08/16 08:18:28;;;;;;;;;;;;;;;;;;5041860;28;19963;-81
2022/08/16 08:20:55;;;;;;;;;;;;;;;;;;5045329;28;19991;-81
2022/08/16 08:23:21;;;;;;;;;;;;;;;;;;5047086;28;20019;-81
2022/08/16 08:25:47;;;;;;;;;;;;;;;;;;5046725;28;20001;-81
2022/08/16 08:28:13;;;;;;;;;;;;;;;;;;5045839;28;20330;-81
2022/08/16 08:30:39;;;;;;;;;;;;;;;;;;5046348;28;19944;-81
2022/08/16 08:33:06;;;;;;;;;;;;;;;;;;5043501;28;19948;-82
2022/08/16 08:35:33;;;;;;;;;;;;;;;;;;5028864;28;19952;-81
2022/08/16 08:37:59;;;;;;;;;;;;;;;;;;5044896;28;19959;-81
2022/08/16 08:40:25;;;;;;;;;;;;;;;;;;5043752;28;19932;-81
2022/08/16 08:42:51;;;;;;;;;;;;;;;;;;5047844;28;20270;-81
2022/08/16 08:45:18;;;;;;;;;;;;;;;;;;5029816;28;19952;-81
2022/08/16 08:47:47;;;;;;;;;;;;;;;;;;5045326;28;20384;-82
2022/08/16 08:50:14;;;;;;;;;;;;;;;;;;5045886;28;19960;-82
2022/08/16 08:52:40;;;;;;;;;;;;;;;;;;5028465;28;19920;-82
2022/08/16 08:55:06;;;;;;;;;;;;;;;;;;5026072;28;20222;-81
2022/08/16 08:57:32;;;;;;;;;;;;;;;;;;5046138;28;19944;-82
2022/08/16 08:59:59;;;;;;;;;;;;;;;;;;5044896;28;19920;-81
2022/08/16 09:02:25;;;;;;;;;;;;;;;;;;5037447;28;20370;-82
2022/08/16 09:04:54;;;;;;;;;;;;;;;;;;5051708;28;19924;-81
2022/08/16 09:07:21;;;;;;;;;;;;;;;;;;5044778;28;19952;-81
2022/08/16 09:09:47;;;;;;;;;;;;;;;;;;5046577;28;19971;-84
2022/08/16 09:12:13;;;;;;;;;;;;;;;;;;5044521;28;19952;-82
2022/08/16 09:14:39;;;;;;;;;;;;;;;;;;5043602;28;19959;-80
2022/08/16 09:17:06;;;;;;;;;;;;;;;;;;5044142;28;20357;-80
2022/08/16 09:19:32;;;;;;;;;;;;;;;;;;5028089;28;19951;-79
2022/08/16 09:21:58;;;;;;;;;;;;;;;;;;5022761;28;20014;-79
2022/08/16 09:24:24;;;;;;;;;;;;;;;;;;5044729;28;20415;-81
2022/08/16 09:26:50;;;;;;;;;;;;;;;;;;5029410;28;19913;-80
2022/08/16 09:29:17;;;;;;;;;;;;;;;;;;5033459;28;19952;-79
2022/08/16 09:31:43;;;;;;;;;;;;;;;;;;5046167;28;19964;-81
2022/08/16 09:34:09;;;;;;;;;;;;;;;;;;5039569;28;20375;-81
2022/08/16 09:36:36;;;;;;;;;;;;;;;;;;5047820;28;19913;-80
2022/08/16 09:39:03;;;;;;;;;;;;;;;;;;5028007;28;19956;-80
2022/08/16 09:41:30;;;;;;;;;;;;;;;;;;5037350;28;20482;-80
2022/08/16 09:43:56;;;;;;;;;;;;;;;;;;5043290;28;19956;-78
2022/08/16 09:46:24;;;;;;;;;;;;;;;;;;5028750;28;19956;-81
2022/08/16 09:48:53;;;;;;;;;;;;;;;;;;5044988;28;19952;-80
2022/08/16 09:51:19;;;;;;;;;;;;;;;;;;5045004;28;20011;-82
2022/08/16 09:53:46;;;;;;;;;;;;;;;;;;5048122;28;19948;-83
2022/08/16 09:56:12;;;;;;;;;;;;;;;;;;5045033;28;19952;-81
2022/08/16 09:58:38;;;;;;;;;;;;;;;;;;5030508;28;19955;-79
2022/08/16 10:01:04;;;;;;;;;;;;;;;;;;5045257;28;19960;-80
2022/08/16 10:03:31;;;;;;;;;;;;;;;;;;5048131;28;19960;-80
2022/08/16 10:05:57;;;;;;;;;;;;;;;;;;5042403;28;19952;-79
2022/08/16 10:08:23;;;;;;;;;;;;;;;;;;5044265;28;20539;-80
2022/08/16 10:13:34;;;;;;;;;;;;;;;;;;5043395;28;21346;-80
2022/08/16 10:16:00;;;;;;;;;;;;;;;;;;5036424;28;19921;-81
2022/08/16 10:18:28;;;;;;;;;;;;;;;;;;5046581;28;20032;-82
2022/08/16 10:20:54;;;;;;;;;;;;;;;;;;5039696;28;19952;-82
2022/08/16 10:23:21;;;;;;;;;;;;;;;;;;5027267;28;19925;-82
2022/08/16 10:25:47;;;;;;;;;;;;;;;;;;5043185;28;19953;-81
2022/08/16 10:28:16;;;;;;;;;;;;;;;;;;5044021;28;19968;-83
2022/08/16 10:30:42;;;;;;;;;;;;;;;;;;5045692;28;19952;-84
2022/08/16 10:33:08;;;;;;;;;;;;;;;;;;5044689;28;19960;-82
2022/08/16 10:35:34;;;;;;;;;;;;;;;;;;5045263;28;19971;-81
2022/08/16 10:38:01;;;;;;;;;;;;;;;;;;5044566;28;19963;-82
2022/08/16 10:40:27;;;;;;;;;;;;;;;;;;5047473;28;19920;-81
2022/08/16 10:42:53;;;;;;;;;;;;;;;;;;5027853;28;19971;-82
2022/08/16 10:45:19;;;;;;;;;;;;;;;;;;5046724;28;19956;-80
2022/08/16 10:47:45;;;;;;;;;;;;;;;;;;5047855;28;19945;-81
2022/08/16 10:50:12;;;;;;;;;;;;;;;;;;5047368;28;19952;-80
2022/08/16 10:52:38;;;;;;;;;;;;;;;;;;5046674;28;19917;-82
2022/08/16 10:55:07;;;;;;;;;;;;;;;;;;5043435;28;19959;-81
2022/08/16 10:57:33;;;;;;;;;;;;;;;;;;5051191;28;19928;-82
2022/08/16 10:59:59;;;;;;;;;;;;;;;;;;5052640;28;19917;-80
2022/08/16 11:02:26;;;;;;;;;;;;;;;;;;5050059;28;19956;-81
2022/08/16 11:04:53;;;;;;;;;;;;;;;;;;5048356;28;20492;-81
2022/08/16 11:07:19;;;;;;;;;;;;;;;;;;5050431;28;19917;-90
2022/08/16 11:09:45;;;;;;;;;;;;;;;;;;5055416;28;19921;-89
2022/08/16 11:12:12;;;;;;;;;;;;;;;;;;5053856;28;19924;-89
2022/08/16 11:14:38;;;;;;;;;;;;;;;;;;5055480;28;19913;-90
2022/08/16 11:17:05;;;;;;;;;;;;;;;;;;5052918;28;19916;-90
2022/08/16 11:19:31;;;;;;;;;;;;;;;;;;5055319;28;20373;-89
2022/08/16 11:21:58;;;;;;;;;;;;;;;;;;5054407;28;19921;-85
2022/08/16 11:24:24;;;;;;;;;;;;;;;;;;5051603;28;19925;-90
2022/08/16 11:26:51;;;;;;;;;;;;;;;;;;5053099;28;19956;-91
2022/08/16 11:29:17;;;;;;;;;;;;;;;;;;5053057;28;20391;-91
2022/08/16 11:31:45;;;;;;;;;;;;;;;;;;5053949;28;19916;-90
2022/08/16 11:34:11;;;;;;;;;;;;;;;;;;5036514;28;19916;-89
2022/08/16 11:36:38;;;;;;;;;;;;;;;;;;5034268;28;19940;-91
2022/08/16 11:39:04;;;;;;;;;;;;;;;;;;5052601;28;19940;-90
2022/08/16 11:41:32;;;;;;;;;;;;;;;;;;5058291;28;19932;-91
2022/08/16 11:43:59;;;;;;;;;;;;;;;;;;5057156;28;20340;-91
2022/08/16 11:46:26;;;;;;;;;;;;;;;;;;5059737;28;19920;-91
2022/08/16 11:48:53;;;;;;;;;;;;;;;;;;5057523;28;19940;-91
2022/08/16 11:51:19;;;;;;;;;;;;;;;;;;5054286;28;19917;-91
2022/08/16 11:53:49;;;;;;;;;;;;;;;;;;5048047;28;19923;-93
2022/08/16 11:56:15;;;;;;;;;;;;;;;;;;5044956;28;19935;-92
2022/08/16 11:58:41;;;;;;;;;;;;;;;;;;5061415;28;19921;-92
2022/08/16 12:01:07;;;;;;;;;;;;;;;;;;5059311;28;19920;-92
2022/08/16 12:03:34;;;;;;;;;;;;;;;;;;5033750;28;19936;-91
2022/08/16 12:06:01;;;;;;;;;;;;;;;;;;5040889;28;19943;-91
2022/08/16 12:08:27;;;;;;;;;;;;;;;;;;5061512;28;19913;-92
2022/08/16 12:10:54;;;;;;;;;;;;;;;;;;5039879;28;19929;-91
2022/08/16 12:13:20;;;;;;;;;;;;;;;;;;5063127;28;20272;-92
2022/08/16 12:15:46;;;;;;;;;;;;;;;;;;5066406;28;19940;-92
2022/08/16 12:18:12;;;;;;;;;;;;;;;;;;5047024;28;19914;-91
2022/08/16 12:20:38;;;;;;;;;;;;;;;;;;5064288;28;19897;-94
2022/08/16 12:23:05;;;;;;;;;;;;;;;;;;5047567;28;19929;-91
2022/08/16 12:25:34;;;;;;;;;;;;;;;;;;5061443;28;20293;-92
2022/08/16 12:28:00;;;;;;;;;;;;;;;;;;5052111;28;19913;-92
2022/08/16 12:30:27;;;;;;;;;;;;;;;;;;5059555;28;19913;-91
2022/08/16 12:32:53;;;;;;;;;;;;;;;;;;5055183;28;19917;-91
2022/08/16 12:35:19;;;;;;;;;;;;;;;;;;5057995;28;19921;-91
2022/08/16 12:37:46;;;;;;;;;;;;;;;;;;5060001;28;19949;-94
2022/08/16 12:40:13;;;;;;;;;;;;;;;;;;5041203;28;19913;-91
2022/08/16 12:42:39;;;;;;;;;;;;;;;;;;5059552;28;19924;-93
2022/08/16 12:45:05;;;;;;;;;;;;;;;;;;5074630;28;19929;-92
2022/08/16 12:50:17;;;;;;;;;;;;;;;;;;5066938;28;19908;-93
2022/08/16 12:52:43;;;;;;;;;;;;;;;;;;5072010;28;19917;-94
2022/08/16 12:55:10;;;;;;;;;;;;;;;;;;5035869;28;19944;-95
2022/08/16 12:57:36;;;;;;;;;;;;;;;;;;5063437;28;19913;-94
2022/08/16 13:00:02;;;;;;;;;;;;;;;;;;5061594;28;19913;-94
2022/08/16 13:02:29;;;;;;;;;;;;;;;;;;5062200;28;19925;-94
2022/08/16 13:04:55;;;;;;;;;;;;;;;;;;5047313;28;19921;-96
2022/08/16 13:07:21;;;;;;;;;;;;;;;;;;5039605;28;19943;-94
2022/08/16 13:09:54;;;;;;;;;;;;;;;;;;5060997;28;19987;-93
2022/08/16 13:12:26;;;;;;;;;;;;;;;;;;5057841;28;19928;-95
2022/08/16 13:14:54;;;;;;;;;;;;;;;;;;5054956;28;20399;-96
2022/08/16 13:17:20;;;;;;;;;;;;;;;;;;5054994;28;19970;-93
2022/08/16 13:19:49;;;;;;;;;;;;;;;;;;5060679;28;19936;-94
2022/08/16 13:22:15;;;;;;;;;;;;;;;;;;5056257;28;19924;-95
2022/08/16 13:24:41;;;;;;;;;;;;;;;;;;5054483;28;19928;-94
2022/08/16 13:27:08;;;;;;;;;;;;;;;;;;5051295;28;19918;-94
2022/08/16 13:29:34;;;;;;;;;;;;;;;;;;5061649;28;20365;-86
2022/08/16 13:32:01;;;;;;;;;;;;;;;;;;5046560;28;19917;-91
2022/08/16 13:34:28;;;;;;;;;;;;;;;;;;5049886;28;19917;-93
2022/08/16 13:36:54;;;;;;;;;;;;;;;;;;5047835;28;19925;-88
2022/08/16 13:39:20;;;;;;;;;;;;;;;;;;5047286;28;19970;-88
2022/08/16 13:41:46;;;;;;;;;;;;;;;;;;5045167;28;19947;-89
2022/08/16 13:44:12;;;;;;;;;;;;;;;;;;5045766;28;19964;-88
2022/08/16 13:46:40;;;;;;;;;;;;;;;;;;5048865;28;19923;-87
2022/08/16 13:49:06;;;;;;;;;;;;;;;;;;5045273;28;20615;-89
2022/08/16 13:51:32;;;;;;;;;;;;;;;;;;5029882;28;20019;-89
2022/08/16 13:54:01;;;;;;;;;;;;;;;;;;5011393;28;19956;-86
2022/08/16 13:56:28;;;;;;;;;;;;;;;;;;5050420;28;20456;-92
2022/08/16 13:58:54;;;;;;;;;;;;;;;;;;5049689;28;19924;-92
2022/08/16 14:01:20;;;;;;;;;;;;;;;;;;5050081;28;19986;-93
2022/08/16 14:03:46;;;;;;;;;;;;;;;;;;5048194;28;19948;-89
2022/08/16 14:06:12;;;;;;;;;;;;;;;;;;5047570;28;20015;-89
2022/08/16 14:08:38;;;;;;;;;;;;;;;;;;5045325;28;19929;-87
2022/08/16 14:11:05;;;;;;;;;;;;;;;;;;5044575;28;19975;-91
2022/08/16 14:13:31;;;;;;;;;;;;;;;;;;5049028;28;19913;-91
2022/08/16 14:15:57;;;;;;;;;;;;;;;;;;5049805;28;19924;-86
2022/08/16 14:18:23;;;;;;;;;;;;;;;;;;5050900;28;22227;-87
2022/08/16 14:20:49;;;;;;;;;;;;;;;;;;5050103;28;20005;-89
2022/08/16 14:23:16;;;;;;;;;;;;;;;;;;5050877;28;20330;-87
2022/08/16 14:25:42;;;;;;;;;;;;;;;;;;5048663;28;19955;-87
2022/08/16 14:28:08;;;;;;;;;;;;;;;;;;5048679;28;20380;-87
2022/08/16 14:30:34;;;;;;;;;;;;;;;;;;5051598;28;19952;-86
2022/08/16 14:33:03;;;;;;;;;;;;;;;;;;5047951;28;20026;-87
2022/08/16 14:35:29;;;;;;;;;;;;;;;;;;5032535;28;19963;-87
2022/08/16 14:37:55;;;;;;;;;;;;;;;;;;5049292;28;19952;-88
2022/08/16 14:40:22;;;;;;;;;;;;;;;;;;5048890;28;19963;-87
2022/08/16 14:42:48;;;;;;;;;;;;;;;;;;5049974;28;19963;-88
2022/08/16 14:45:14;;;;;;;;;;;;;;;;;;5048575;28;19964;-87
2022/08/16 14:47:40;;;;;;;;;;;;;;;;;;5029613;28;19917;-89
2022/08/16 14:50:07;;;;;;;;;;;;;;;;;;5050160;28;20489;-86
2022/08/16 14:52:33;;;;;;;;;;;;;;;;;;5061765;28;19999;-94
2022/08/16 14:54:59;;;;;;;;;;;;;;;;;;5061229;28;19966;-93
2022/08/16 14:57:25;;;;;;;;;;;;;;;;;;5045409;28;19917;-93
2022/08/16 14:59:51;;;;;;;;;;;;;;;;;;5058718;28;19917;-91
2022/08/16 15:02:18;;;;;;;;;;;;;;;;;;5049578;28;19921;-89
2022/08/16 15:04:44;;;;;;;;;;;;;;;;;;5034094;28;19952;-89
2022/08/16 15:07:10;;;;;;;;;;;;;;;;;;5035188;28;19922;-89
2022/08/16 15:09:36;;;;;;;;;;;;;;;;;;5035038;28;19929;-90
2022/08/16 15:12:02;;;;;;;;;;;;;;;;;;5051555;28;20389;-90
2022/08/16 15:14:29;;;;;;;;;;;;;;;;;;5036541;28;19971;-91
2022/08/16 15:16:55;;;;;;;;;;;;;;;;;;5053333;28;19921;-89
2022/08/16 15:19:22;;;;;;;;;;;;;;;;;;5052940;28;19951;-90
2022/08/16 15:21:48;;;;;;;;;;;;;;;;;;5038508;28;19916;-86
2022/08/16 15:24:15;;;;;;;;;;;;;;;;;;5058373;28;19924;-90
2022/08/16 15:26:43;;;;;;;;;;;;;;;;;;5064284;28;19924;-91
2022/08/16 15:29:09;;;;;;;;;;;;;;;;;;5059200;28;20335;-89
2022/08/16 15:31:36;;;;;;;;;;;;;;;;;;5064388;28;19925;-89
2022/08/16 15:34:02;;;;;;;;;;;;;;;;;;5056443;28;20302;-89
2022/08/16 15:36:28;;;;;;;;;;;;;;;;;;5052738;28;20308;-91
2022/08/16 15:38:57;;;;;;;;;;;;;;;;;;5021723;28;19959;-90
2022/08/16 15:41:23;;;;;;;;;;;;;;;;;;5050122;28;21186;-91
2022/08/16 15:43:50;;;;;;;;;;;;;;;;;;5056093;28;19952;-92
2022/08/16 15:46:22;;;;;;;;;;;;;;;;;;5033405;28;19913;-90
2022/08/16 15:48:48;;;;;;;;;;;;;;;;;;5034390;28;20468;-93
2022/08/16 15:51:14;;;;;;;;;;;;;;;;;;5063969;28;19925;-91
2022/08/16 15:53:40;;;;;;;;;;;;;;;;;;5064569;28;19943;-90
2022/08/16 15:56:06;;;;;;;;;;;;;;;;;;5061585;28;19913;-92
2022/08/16 15:58:33;;;;;;;;;;;;;;;;;;5044134;28;19916;-92
2022/08/16 16:01:00;;;;;;;;;;;;;;;;;;5058459;28;19920;-91
2022/08/16 16:03:27;;;;;;;;;;;;;;;;;;5061434;28;19917;-92
2022/08/16 16:05:53;;;;;;;;;;;;;;;;;;5055701;28;19917;-91
2022/08/16 16:08:20;;;;;;;;;;;;;;;;;;5055306;28;19917;-92
2022/08/16 16:10:46;;;;;;;;;;;;;;;;;;5055568;28;19956;-92
2022/08/16 16:13:12;;;;;;;;;;;;;;;;;;5053932;28;19917;-91
2022/08/16 16:15:38;;;;;;;;;;;;;;;;;;5055827;28;19917;-92
2022/08/16 16:18:05;;;;;;;;;;;;;;;;;;5046226;28;20288;-92
2022/08/16 16:20:31;;;;;;;;;;;;;;;;;;5059232;28;19912;-93
2022/08/16 16:22:57;;;;;;;;;;;;;;;;;;5056357;28;20270;-92
2022/08/16 16:25:23;;;;;;;;;;;;;;;;;;5055415;28;19935;-91
2022/08/16 16:27:50;;;;;;;;;;;;;;;;;;5057793;28;19913;-91
2022/08/16 16:30:16;;;;;;;;;;;;;;;;;;5048137;28;19916;-83
2022/08/16 16:32:42;;;;;;;;;;;;;;;;;;5051183;28;19917;-89
2022/08/16 16:35:09;;;;;;;;;;;;;;;;;;5047026;28;19948;-83
2022/08/16 16:37:38;;;;;;;;;;;;;;;;;;5032343;28;19917;-88
2022/08/16 16:40:04;;;;;;;;;;;;;;;;;;5042010;28;19991;-88
2022/08/16 16:42:34;;;;;;;;;;;;;;;;;;5038185;28;19972;-87
2022/08/16 16:45:01;;;;;;;;;;;;;;;;;;5025137;28;19983;-87